Time;durP1;ratioP1;P1;durP2;ratioP2;P2;SDS_P1;SDS_P2;PMS_P1;PMS_P2;Temp;Humidity;BMP_temperature;BMP_pressure;BME280_temperature;BME280_humidity;BME280_pressure;Samples;Min_cycle;Max_cycle;Signal;HPM_P1;HPM_P2
2023/01/21 00:07:27;;;;;;;22.50;7.80;;;;;;;0.89;100.00;98575.05;132326;1307;560698;-61
2023/01/21 00:10:30;;;;;;;23.10;7.60;;;;;;;0.95;100.00;98574.55;134859;1269;112041;-61
2023/01/21 00:13:32;;;;;;;25.90;8.40;;;;;;;0.83;100.00;98572.11;134974;1285;22546;-60
2023/01/21 00:16:35;;;;;;;;;;;;;;;0.74;100.00;98564.77;134976;1285;22540;-61
2023/01/21 00:19:37;;;;;;;21.30;7.10;;;;;;;0.60;100.00;98557.36;134958;1285;22563;-61
2023/01/21 00:22:39;;;;;;;23.30;7.40;;;;;;;0.57;100.00;98561.40;135324;1281;22536;-60
2023/01/21 00:25:42;;;;;;;23.10;7.60;;;;;;;0.52;100.00;98553.42;135391;1281;22641;-60
2023/01/21 00:28:45;;;;;;;23.80;7.50;;;;;;;0.55;100.00;98550.43;135304;1281;22571;-59
2023/01/21 00:31:48;;;;;;;27.90;7.70;;;;;;;0.46;100.00;98555.46;135351;1281;22552;-59
2023/01/21 00:34:50;;;;;;;23.10;7.20;;;;;;;0.39;100.00;98558.90;135386;1281;22636;-60
2023/01/21 00:37:53;;;;;;;21.80;6.90;;;;;;;0.42;100.00;98553.67;135402;1281;22648;-59
2023/01/21 00:40:55;;;;;;;20.70;6.30;;;;;;;0.45;100.00;98555.33;135395;1281;25487;-59
2023/01/21 00:43:57;;;;;;;20.50;7.10;;;;;;;0.51;100.00;98553.27;135314;1281;22562;-61
2023/01/21 00:47:00;;;;;;;23.20;7.70;;;;;;;0.51;100.00;98558.60;135351;1281;22554;-60
2023/01/21 00:50:02;;;;;;;23.10;7.10;;;;;;;0.47;100.00;98566.78;135346;1281;22551;-59
2023/01/21 00:53:05;;;;;;;20.80;6.10;;;;;;;0.55;100.00;98569.88;135322;1281;22559;-59
2023/01/21 00:56:07;;;;;;;23.30;7.10;;;;;;;0.61;100.00;98563.35;135343;1281;22540;-60
2023/01/21 00:59:10;;;;;;;20.60;6.40;;;;;;;0.49;100.00;98557.98;135350;1281;22575;-58
2023/01/21 01:02:12;;;;;;;20.00;6.20;;;;;;;0.40;100.00;98565.08;135362;1281;22643;-59
2023/01/21 01:05:15;;;;;;;23.10;7.00;;;;;;;0.30;100.00;98563.25;135377;1281;22660;-60
2023/01/21 01:08:17;;;;;;;21.10;6.60;;;;;;;0.33;100.00;98565.05;135338;1281;22770;-60
2023/01/21 01:11:21;;;;;;;20.50;6.40;;;;;;;0.31;100.00;98568.73;135353;1281;24261;-60
2023/01/21 01:14:23;;;;;;;19.60;5.60;;;;;;;0.33;100.00;98569.86;135375;1281;22548;-59
2023/01/21 01:17:26;;;;;;;21.60;6.60;;;;;;;0.30;100.00;98579.40;135400;1281;22560;-62
2023/01/21 01:20:28;;;;;;;;;;;;;;;0.31;100.00;98587.12;135760;1277;22540;-59
2023/01/21 01:23:30;;;;;;;21.80;6.60;;;;;;;0.30;100.00;98582.66;135811;1277;22577;-60
2023/01/21 01:26:34;;;;;;;19.90;6.00;;;;;;;0.24;100.00;98575.08;135762;1277;25301;-58
2023/01/21 01:29:36;;;;;;;19.90;6.10;;;;;;;0.25;100.00;98581.59;135803;1277;22635;-61
2023/01/21 01:32:39;;;;;;;20.30;6.10;;;;;;;0.21;100.00;98578.42;135747;1277;22542;-62
2023/01/21 01:35:45;;;;;;;20.00;6.10;;;;;;;0.15;100.00;98580.08;135750;1277;22554;-61
2023/01/21 01:38:48;;;;;;;19.30;5.90;;;;;;;0.15;100.00;98576.31;135789;1277;22532;-62
2023/01/21 01:41:50;;;;;;;21.20;6.50;;;;;;;0.18;100.00;98569.88;135742;1277;22586;-60
2023/01/21 01:44:53;;;;;;;;;;;;;;;0.27;100.00;98570.89;135755;1277;22994;-60
2023/01/21 01:47:58;;;;;;;20.20;6.20;;;;;;;0.22;100.00;98563.26;135766;1277;22561;-59
2023/01/21 01:51:01;;;;;;;19.80;5.60;;;;;;;0.09;100.00;98563.71;135764;1277;22524;-59
2023/01/21 01:54:04;;;;;;;22.30;6.50;;;;;;;0.13;100.00;98562.10;135777;1277;22619;-61
2023/01/21 01:57:07;;;;;;;21.20;6.20;;;;;;;0.15;100.00;98557.40;135723;1277;22569;-61
2023/01/21 02:00:10;;;;;;;19.90;6.10;;;;;;;0.10;100.00;98546.51;135770;1277;22525;-59
2023/01/21 02:06:32;;;;;;;20.60;5.70;;;;;;;0.13;100.00;98538.19;135740;1277;22569;-61
2023/01/21 02:09:35;;;;;;;19.60;6.30;;;;;;;0.08;100.00;98536.40;135761;1277;22589;-63
2023/01/21 02:12:37;;;;;;;18.60;5.40;;;;;;;0.09;100.00;98530.38;135749;1277;22539;-62
2023/01/21 02:15:40;;;;;;;18.80;5.60;;;;;;;0.06;100.00;98515.99;135740;1277;22661;-59
2023/01/21 02:18:42;;;;;;;19.00;5.60;;;;;;;0.03;100.00;98510.73;135785;1264;22549;-60
2023/01/21 02:21:44;;;;;;;20.00;5.70;;;;;;;0.03;100.00;98501.64;135755;1277;22540;-60
2023/01/21 02:24:47;;;;;;;18.40;5.10;;;;;;;0.11;100.00;98503.67;135738;1277;22543;-60
2023/01/21 02:27:49;;;;;;;18.90;5.20;;;;;;;0.16;100.00;98500.12;135772;1277;22644;-61
2023/01/21 02:30:52;;;;;;;19.10;5.20;;;;;;;0.10;100.00;98511.59;135771;1277;22565;-60
2023/01/21 02:33:54;;;;;;;19.10;5.20;;;;;;;0.16;100.00;98510.43;135730;1277;22569;-60
2023/01/21 02:36:56;;;;;;;15.90;4.40;;;;;;;0.11;100.00;98513.48;135754;1277;22539;-60
2023/01/21 02:39:59;;;;;;;14.80;4.40;;;;;;;0.13;100.00;98515.13;135778;1277;22536;-60
2023/01/21 02:43:01;;;;;;;;;;;;;;;0.16;100.00;98519.02;135774;1277;22527;-59
2023/01/21 02:46:04;;;;;;;18.00;4.90;;;;;;;0.21;100.00;98518.75;135772;1277;22542;-59
2023/01/21 02:49:07;;;;;;;18.70;5.30;;;;;;;0.23;100.00;98525.55;135777;1277;22559;-59
2023/01/21 02:52:09;;;;;;;15.50;4.60;;;;;;;0.21;100.00;98524.58;97976;1277;1005804;-59
2023/01/21 02:55:12;;;;;;;17.00;4.40;;;;;;;0.22;100.00;98528.33;67827;1277;1016462;-59
2023/01/21 02:58:14;;;;;;;12.60;3.80;;;;;;;0.23;100.00;98531.77;67864;1277;1015957;-59
2023/01/21 03:01:17;;;;;;;15.90;4.40;;;;;;;0.24;100.00;98533.45;67839;1277;1016458;-59
2023/01/21 03:04:19;;;;;;;15.20;4.10;;;;;;;0.24;100.00;98527.10;67817;1277;1017197;-59
2023/01/21 03:07:24;;;;;;;14.80;4.30;;;;;;;0.29;100.00;98526.61;67811;1277;1016440;-59
2023/01/21 03:10:26;;;;;;;15.20;4.00;;;;;;;0.34;100.00;98523.74;67882;1277;1016310;-58
2023/01/21 03:16:58;;;;;;;14.50;4.10;;;;;;;0.47;100.00;98525.48;67805;1277;1016485;-58
2023/01/21 03:20:01;;;;;;;15.10;4.30;;;;;;;0.51;100.00;98524.53;67837;1277;1015926;-59
2023/01/21 03:23:03;;;;;;;14.20;4.00;;;;;;;0.42;100.00;98519.42;67824;1277;1016372;-59
2023/01/21 03:26:05;;;;;;;14.30;4.20;;;;;;;0.40;100.00;98519.31;67807;1277;1016517;-59
2023/01/21 03:29:08;;;;;;;15.80;4.60;;;;;;;0.40;100.00;98522.23;67829;1277;1016353;-59
2023/01/21 03:32:10;;;;;;;16.00;4.40;;;;;;;0.50;100.00;98526.27;67853;1277;1018752;-58
2023/01/21 03:35:13;;;;;;;16.80;4.60;;;;;;;0.55;100.00;98520.15;67873;1277;1016229;-59
2023/01/21 03:38:15;;;;;;;16.10;4.00;;;;;;;0.54;100.00;98509.33;67792;1277;1016449;-59
2023/01/21 03:41:18;;;;;;;16.00;4.20;;;;;;;0.52;100.00;98511.09;67800;1277;1016202;-59
2023/01/21 03:44:20;;;;;;;13.80;3.80;;;;;;;0.57;100.00;98514.41;67811;1277;1016479;-59
2023/01/21 03:47:23;;;;;;;15.20;4.10;;;;;;;0.53;100.00;98518.48;67861;1278;1016134;-59
2023/01/21 03:50:25;;;;;;;14.10;4.10;;;;;;;0.52;100.00;98515.23;67854;1277;1016478;-59
2023/01/21 03:53:28;;;;;;;15.90;4.10;;;;;;;0.60;100.00;98513.46;67810;1277;1018685;-59
2023/01/21 03:56:30;;;;;;;12.50;3.70;;;;;;;0.61;100.00;98512.23;67802;1277;1016443;-59
2023/01/21 03:59:33;;;;;;;15.00;4.00;;;;;;;0.64;100.00;98510.43;67818;1277;1016445;-59
2023/01/21 04:02:35;;;;;;;;;;;;;;;0.64;100.00;98498.91;67854;1278;1015872;-59
2023/01/21 04:05:38;;;;;;;15.10;4.20;;;;;;;0.63;100.00;98497.73;67822;1277;1016490;-59
2023/01/21 04:08:41;;;;;;;13.90;4.10;;;;;;;0.64;100.00;98493.23;67850;1278;1016497;-59
2023/01/21 04:11:44;;;;;;;14.50;3.80;;;;;;;0.63;100.00;98491.89;67840;1277;1016430;-59
2023/01/21 04:14:46;;;;;;;13.80;3.70;;;;;;;0.61;100.00;98487.81;67791;1277;1016262;-59
2023/01/21 04:17:49;;;;;;;17.80;4.10;;;;;;;0.65;100.00;98501.46;67823;1277;1016938;-58
2023/01/21 04:20:51;;;;;;;16.10;4.10;;;;;;;0.63;100.00;98500.33;67821;1277;1016854;-58
2023/01/21 04:23:53;;;;;;;15.50;4.20;;;;;;;0.60;100.00;98492.48;67784;1277;1016207;-59
2023/01/21 04:26:56;;;;;;;12.40;3.60;;;;;;;0.59;100.00;98492.83;67883;1277;1015922;-59
2023/01/21 04:29:59;;;;;;;12.70;3.60;;;;;;;0.59;100.00;98488.55;67809;1277;1016402;-58
2023/01/21 04:33:01;;;;;;;14.30;3.80;;;;;;;0.60;100.00;98485.08;67815;1278;1016219;-59
2023/01/21 04:36:03;;;;;;;11.50;3.40;;;;;;;0.58;100.00;98477.20;67815;1277;1016400;-59
2023/01/21 04:39:06;;;;;;;13.10;3.40;;;;;;;0.60;100.00;98476.45;67860;1277;1016887;-59
2023/01/21 04:42:08;;;;;;;13.70;3.50;;;;;;;0.51;100.00;98475.34;67860;1277;1016459;-59
2023/01/21 04:45:11;;;;;;;12.10;3.40;;;;;;;0.52;100.00;98476.00;67844;1277;1016490;-58
2023/01/21 04:48:13;;;;;;;11.60;3.20;;;;;;;0.53;100.00;98480.79;67831;1277;1016172;-59
2023/01/21 04:51:16;;;;;;;9.80;3.00;;;;;;;0.45;100.00;98480.83;67883;1277;1016355;-59
2023/01/21 04:54:18;;;;;;;11.50;3.20;;;;;;;0.42;100.00;98476.08;67876;1277;1016074;-58
2023/01/21 04:57:21;;;;;;;12.40;3.20;;;;;;;0.45;100.00;98483.59;67865;1277;1018053;-59
2023/01/21 05:00:23;;;;;;;10.30;3.00;;;;;;;0.46;100.00;98484.05;67844;1277;1016122;-59
2023/01/21 05:03:26;;;;;;;9.60;2.80;;;;;;;0.41;100.00;98490.72;67844;1277;1016243;-59
2023/01/21 05:06:29;;;;;;;12.40;3.30;;;;;;;0.42;100.00;98486.05;67874;1277;1015760;-59
2023/01/21 05:09:31;;;;;;;8.00;2.60;;;;;;;0.36;100.00;98487.75;67797;1277;1016417;-59
2023/01/21 05:12:33;;;;;;;9.50;2.70;;;;;;;0.33;100.00;98485.59;67816;1277;1016144;-59
2023/01/21 05:15:37;;;;;;;9.70;2.70;;;;;;;0.37;100.00;98485.48;67885;1277;1016462;-59
2023/01/21 05:18:39;;;;;;;8.40;2.70;;;;;;;0.35;100.00;98485.72;67813;1277;1016474;-59
2023/01/21 05:21:42;;;;;;;9.10;2.30;;;;;;;0.33;100.00;98494.87;67859;1277;1017476;-59
2023/01/21 05:24:45;;;;;;;10.20;2.70;;;;;;;0.39;100.00;98488.20;67856;1277;1016785;-59
2023/01/21 05:27:47;;;;;;;5.90;2.50;;;;;;;0.46;100.00;98491.63;67843;1277;1016488;-58
2023/01/21 05:30:49;;;;;;;6.80;2.20;;;;;;;0.45;100.00;98496.28;67828;1277;1016245;-59
2023/01/21 05:33:52;;;;;;;9.00;2.50;;;;;;;0.54;100.00;98498.48;67819;1277;1016869;-59
2023/01/21 05:36:54;;;;;;;5.70;1.90;;;;;;;0.55;100.00;98500.54;67832;1277;1016495;-59
2023/01/21 05:39:57;;;;;;;5.40;2.00;;;;;;;0.58;100.00;98498.58;67868;1277;1016346;-59
2023/01/21 05:42:59;;;;;;;8.80;2.70;;;;;;;0.57;100.00;98492.21;67881;1277;1016180;-59
2023/01/21 05:46:02;;;;;;;;;;;;;;;0.64;100.00;98490.31;67802;1277;1016236;-58
2023/01/21 05:49:05;;;;;;;9.50;2.70;;;;;;;0.65;100.00;98486.85;67829;1277;1016360;-59
2023/01/21 05:52:07;;;;;;;8.40;2.10;;;;;;;0.69;100.00;98491.04;67850;1277;1016416;-59
2023/01/21 05:55:10;;;;;;;7.80;2.00;;;;;;;0.68;100.00;98493.30;67838;1277;1016174;-59
2023/01/21 05:58:12;;;;;;;7.70;2.20;;;;;;;0.65;100.00;98486.83;67838;1277;1016533;-59
2023/01/21 06:01:14;;;;;;;5.50;2.00;;;;;;;0.61;100.00;98485.21;67818;1277;1015852;-59
2023/01/21 06:04:17;;;;;;;6.90;2.20;;;;;;;0.58;100.00;98485.81;67839;1277;1015981;-58
2023/01/21 06:07:21;;;;;;;6.20;2.30;;;;;;;0.65;100.00;98485.48;67854;1277;1015905;-58
2023/01/21 06:10:24;;;;;;;8.40;2.50;;;;;;;0.65;100.00;98484.09;67817;1277;1016492;-59
2023/01/21 06:13:26;;;;;;;8.80;2.50;;;;;;;0.64;100.00;98490.65;67802;1277;1016486;-59
2023/01/21 06:16:28;;;;;;;3.80;1.70;;;;;;;0.68;100.00;98490.20;67839;1277;1016364;-59
2023/01/21 06:19:31;;;;;;;6.80;2.10;;;;;;;0.70;100.00;98489.12;67862;1277;1016372;-58
2023/01/21 06:22:33;;;;;;;6.90;2.30;;;;;;;0.74;100.00;98492.80;67844;1277;1016143;-59
2023/01/21 06:25:36;;;;;;;5.60;1.90;;;;;;;0.63;100.00;98491.04;67818;1277;1016405;-59
2023/01/21 06:28:38;;;;;;;8.20;2.50;;;;;;;0.72;100.00;98486.33;67827;1277;1019424;-59
2023/01/21 06:31:40;;;;;;;7.10;2.10;;;;;;;0.77;100.00;98476.38;67818;1277;1016641;-59
2023/01/21 06:34:43;;;;;;;10.30;2.60;;;;;;;0.68;100.00;98481.96;67863;1277;1016410;-58
2023/01/21 06:37:45;;;;;;;6.50;2.20;;;;;;;0.67;100.00;98480.08;67847;1277;1016384;-58
2023/01/21 06:40:48;;;;;;;9.30;2.70;;;;;;;0.66;100.00;98483.54;67811;1277;1016971;-59
2023/01/21 06:43:50;;;;;;;4.90;1.90;;;;;;;0.62;100.00;98486.92;67809;1277;1016789;-59
2023/01/21 06:46:53;;;;;;;6.00;1.90;;;;;;;0.69;100.00;98491.55;67869;1277;1016404;-59
2023/01/21 06:49:56;;;;;;;4.20;2.00;;;;;;;0.67;100.00;98500.55;67807;1277;1016423;-59
2023/01/21 06:52:58;;;;;;;6.50;2.40;;;;;;;0.68;100.00;98494.34;67788;1277;1016326;-59
2023/01/21 06:56:01;;;;;;;5.60;2.10;;;;;;;0.74;100.00;98492.11;67842;1277;1016310;-58
2023/01/21 06:59:03;;;;;;;6.80;2.20;;;;;;;0.79;100.00;98491.98;67852;1277;1016271;-59
2023/01/21 07:02:06;;;;;;;7.40;2.30;;;;;;;0.74;100.00;98491.10;67852;1277;1016753;-58
2023/01/21 07:05:08;;;;;;;6.50;2.20;;;;;;;0.69;100.00;98496.71;67831;1277;1016066;-59
2023/01/21 07:08:10;;;;;;;7.20;2.30;;;;;;;0.79;100.00;98496.99;67825;1277;1016619;-59
2023/01/21 07:11:13;;;;;;;4.40;1.80;;;;;;;0.87;100.00;98502.11;67850;1277;1016398;-59
2023/01/21 07:14:15;;;;;;;6.10;2.40;;;;;;;0.88;100.00;98506.73;67847;1277;1017000;-59
2023/01/21 07:17:18;;;;;;;5.70;2.00;;;;;;;0.88;100.00;98501.05;67823;1277;1016471;-59
2023/01/21 07:20:21;;;;;;;7.40;2.40;;;;;;;0.90;100.00;98506.00;67849;1277;1016168;-58
2023/01/21 07:23:23;;;;;;;6.20;2.10;;;;;;;1.01;100.00;98504.30;67851;1277;1017079;-59
2023/01/21 07:26:26;;;;;;;6.10;2.00;;;;;;;1.08;100.00;98507.73;67795;1277;1019094;-59
2023/01/21 07:29:28;;;;;;;9.30;2.20;;;;;;;1.15;100.00;98515.80;67831;1277;1016463;-59
2023/01/21 07:32:31;;;;;;;11.60;2.50;;;;;;;1.20;100.00;98513.08;67828;1277;1016123;-59
2023/01/21 07:35:33;;;;;;;8.00;2.20;;;;;;;1.22;100.00;98515.09;67858;1277;1016291;-59
2023/01/21 07:38:36;;;;;;;6.00;2.30;;;;;;;1.29;100.00;98512.48;67801;1277;1016186;-58
2023/01/21 07:41:38;;;;;;;4.70;1.90;;;;;;;1.37;100.00;98506.77;67815;1277;1016171;-59
2023/01/21 07:44:41;;;;;;;6.10;2.40;;;;;;;1.49;100.00;98516.42;67831;1277;1016689;-59
2023/01/21 07:47:43;;;;;;;8.50;2.70;;;;;;;1.58;100.00;98511.82;67869;1277;1015876;-59
2023/01/21 07:50:46;;;;;;;8.80;2.60;;;;;;;1.63;100.00;98521.52;67848;1277;1016128;-58
2023/01/21 07:53:51;;;;;;;7.80;2.40;;;;;;;1.69;100.00;98521.48;67827;1277;1016489;-59
2023/01/21 07:56:54;;;;;;;5.60;2.40;;;;;;;1.83;100.00;98519.55;67866;1278;1016450;-59
2023/01/21 07:59:56;;;;;;;6.70;2.10;;;;;;;1.91;100.00;98517.05;67805;1257;1016129;-58
2023/01/21 08:02:59;;;;;;;7.80;2.30;;;;;;;2.05;100.00;98519.56;67808;1277;1017593;-59
2023/01/21 08:06:01;;;;;;;4.80;1.80;;;;;;;2.27;100.00;98520.95;67825;1277;1016311;-59
2023/01/21 08:09:03;;;;;;;5.70;2.00;;;;;;;2.48;100.00;98525.11;67844;1277;1016525;-59
2023/01/21 08:12:06;;;;;;;7.80;2.30;;;;;;;2.61;100.00;98524.48;67829;1277;1016402;-59
2023/01/21 08:15:08;;;;;;;8.20;2.20;;;;;;;2.83;100.00;98529.09;67828;1278;1016401;-59
2023/01/21 08:18:11;;;;;;;5.30;2.10;;;;;;;2.97;100.00;98530.52;67851;1277;1015994;-59
2023/01/21 08:21:13;;;;;;;6.20;2.20;;;;;;;3.06;100.00;98533.66;67870;1277;1016433;-59
2023/01/21 08:24:16;;;;;;;7.50;2.30;;;;;;;3.09;100.00;98533.41;67872;1277;1016507;-59
2023/01/21 08:27:18;;;;;;;5.40;2.10;;;;;;;3.10;100.00;98537.34;67852;1277;1016144;-59
2023/01/21 08:30:21;;;;;;;8.10;2.50;;;;;;;3.09;100.00;98538.22;67810;1277;1016058;-59
2023/01/21 08:33:23;;;;;;;7.50;2.10;;;;;;;3.33;100.00;98532.55;67884;1277;1016571;-59
2023/01/21 08:36:25;;;;;;;7.70;2.40;;;;;;;3.49;100.00;98533.71;67902;1277;1016135;-59
2023/01/21 08:39:28;;;;;;;7.60;2.20;;;;;;;3.79;100.00;98537.25;67849;1277;1016529;-59
2023/01/21 08:42:30;;;;;;;5.30;2.00;;;;;;;3.80;100.00;98540.85;67822;1277;1016024;-59
2023/01/21 08:45:33;;;;;;;7.80;2.30;;;;;;;3.84;100.00;98540.69;67832;1277;1016339;-59
2023/01/21 08:48:35;;;;;;;6.80;2.20;;;;;;;3.96;100.00;98547.84;67861;1277;1016310;-59
2023/01/21 08:51:38;;;;;;;5.20;1.80;;;;;;;4.06;100.00;98551.64;67869;1277;1016429;-59
2023/01/21 08:54:41;;;;;;;6.10;2.10;;;;;;;4.04;100.00;98553.08;67887;1277;1016150;-59
2023/01/21 08:57:43;;;;;;;7.30;2.20;;;;;;;4.00;100.00;98557.73;67844;1277;1016468;-59
2023/01/21 09:00:45;;;;;;;7.00;2.00;;;;;;;3.97;100.00;98557.48;67837;1278;1015928;-59
2023/01/21 09:03:48;;;;;;;7.10;2.30;;;;;;;4.02;100.00;98559.55;67862;1277;1016499;-59
2023/01/21 09:06:50;;;;;;;6.10;2.10;;;;;;;4.04;100.00;98567.80;67847;1277;1016374;-59
2023/01/21 09:09:53;;;;;;;8.20;2.30;;;;;;;4.01;100.00;98568.43;67827;1278;1016430;-59
2023/01/21 09:12:55;;;;;;;4.80;1.90;;;;;;;3.97;100.00;98573.94;67832;1277;1016474;-59
2023/01/21 09:15:58;;;;;;;7.10;2.50;;;;;;;3.97;100.00;98570.48;67858;1256;1016190;-59
2023/01/21 09:19:00;;;;;;;5.20;1.70;;;;;;;3.89;100.00;98567.66;67875;1277;1016487;-59
2023/01/21 09:22:03;;;;;;;6.80;2.10;;;;;;;3.89;100.00;98565.42;67873;1277;1016081;-59
2023/01/21 09:25:09;;;;;;;6.90;2.10;;;;;;;3.86;100.00;98569.15;67820;1277;1016404;-59
2023/01/21 09:28:11;;;;;;;6.00;1.80;;;;;;;3.94;100.00;98569.90;67808;1277;1016010;-59
2023/01/21 09:31:14;;;;;;;7.90;1.90;;;;;;;4.14;100.00;98570.20;67832;1277;1016683;-59
2023/01/21 09:34:16;;;;;;;8.40;1.90;;;;;;;4.16;100.00;98576.16;67821;1277;1017030;-59
2023/01/21 09:37:18;;;;;;;7.30;2.30;;;;;;;4.20;100.00;98583.09;67859;1277;1016049;-59
2023/01/21 09:40:21;;;;;;;5.50;2.20;;;;;;;4.14;100.00;98586.95;67863;1277;1015950;-59
2023/01/21 09:43:23;;;;;;;7.90;2.30;;;;;;;4.14;100.00;98589.71;67816;1277;1016432;-59
2023/01/21 09:46:26;;;;;;;6.60;2.00;;;;;;;4.16;100.00;98590.67;67814;1277;1016500;-59
2023/01/21 09:49:28;;;;;;;6.00;2.10;;;;;;;4.28;100.00;98594.88;67815;1277;1016515;-58
2023/01/21 09:52:30;;;;;;;7.40;2.40;;;;;;;4.36;100.00;98597.38;67842;1277;1016131;-59
2023/01/21 09:55:33;;;;;;;6.40;2.10;;;;;;;4.39;100.00;98598.96;67867;1278;1016081;-59
2023/01/21 09:58:36;;;;;;;5.40;1.80;;;;;;;4.31;100.00;98597.58;67814;1277;1016411;-59
2023/01/21 10:01:39;;;;;;;4.20;1.80;;;;;;;4.37;100.00;98607.88;67861;1278;1016001;-59
2023/01/21 10:04:41;;;;;;;7.00;2.00;;;;;;;4.37;100.00;98610.66;67844;1278;1016035;-59
2023/01/21 10:07:44;;;;;;;6.50;1.80;;;;;;;4.34;100.00;98612.14;67838;1277;1016658;-59
2023/01/21 10:10:46;;;;;;;6.00;2.00;;;;;;;4.23;100.00;98612.92;67824;1278;1018837;-59
2023/01/21 10:13:49;;;;;;;4.80;1.80;;;;;;;3.91;100.00;98617.06;67764;1278;1016298;-59
2023/01/21 10:16:51;;;;;;;4.90;1.70;;;;;;;3.73;100.00;98616.34;67844;1277;1016440;-59
2023/01/21 10:19:53;;;;;;;5.40;2.00;;;;;;;3.65;100.00;98618.35;67844;1278;1016242;-59
2023/01/21 10:22:56;;;;;;;6.90;1.90;;;;;;;3.60;100.00;98621.84;67852;1278;1018591;-59
2023/01/21 10:25:58;;;;;;;6.50;2.10;;;;;;;3.52;100.00;98624.51;67837;1277;1016109;-59
2023/01/21 10:29:01;;;;;;;7.40;2.10;;;;;;;3.56;100.00;98627.67;67824;1278;1016216;-59
2023/01/21 10:32:05;;;;;;;6.50;2.20;;;;;;;3.59;100.00;98628.60;67868;1277;1016667;-59
2023/01/21 10:35:08;;;;;;;6.60;2.40;;;;;;;3.60;100.00;98630.09;67851;1278;1018044;-59
2023/01/21 10:38:10;;;;;;;6.10;2.20;;;;;;;3.61;100.00;98630.27;67858;1278;1016257;-59
2023/01/21 10:41:13;;;;;;;5.80;2.40;;;;;;;3.60;100.00;98637.20;67806;1278;1016137;-59
2023/01/21 10:44:15;;;;;;;7.80;2.60;;;;;;;3.60;100.00;98642.92;67812;1278;1016519;-59
2023/01/21 10:47:18;;;;;;;8.30;2.50;;;;;;;3.63;100.00;98642.81;67815;1278;1016165;-59
2023/01/21 10:50:20;;;;;;;;;;;;;;;3.66;100.00;98642.52;67873;1278;1015925;-59
2023/01/21 10:53:23;;;;;;;9.60;2.70;;;;;;;3.73;100.00;98641.42;67854;1277;1018169;-59
2023/01/21 10:56:28;;;;;;;8.70;3.00;;;;;;;3.84;100.00;98645.89;67795;1278;1016271;-59
2023/01/21 10:59:30;;;;;;;14.30;3.60;;;;;;;3.80;100.00;98645.48;67848;1277;1016395;-59
2023/01/21 11:02:33;;;;;;;9.30;3.10;;;;;;;3.77;100.00;98641.98;67854;1278;1016228;-59
2023/01/21 11:05:35;;;;;;;13.10;3.80;;;;;;;3.87;100.00;98638.50;67802;1278;1015968;-59
2023/01/21 11:08:38;;;;;;;12.20;3.60;;;;;;;3.92;100.00;98641.60;67788;1278;1016513;-59
2023/01/21 11:11:41;;;;;;;15.50;4.20;;;;;;;3.95;100.00;98644.77;67839;1278;1016526;-59
2023/01/21 11:14:44;;;;;;;13.50;3.90;;;;;;;4.08;100.00;98639.27;67842;1278;1016440;-60
2023/01/21 11:17:46;;;;;;;15.30;4.50;;;;;;;3.96;100.00;98636.41;67852;1278;1016462;-59
2023/01/21 11:20:49;;;;;;;16.90;5.00;;;;;;;3.90;100.00;98633.89;67812;1278;1015950;-59
2023/01/21 11:23:51;;;;;;;18.40;5.00;;;;;;;3.93;100.00;98627.20;67815;1278;1016459;-59
2023/01/21 11:26:54;;;;;;;16.60;5.50;;;;;;;3.87;100.00;98629.86;67857;1278;1016439;-59
2023/01/21 11:29:57;;;;;;;;;;;;;;;3.80;100.00;98630.27;67857;1278;1016635;-59
2023/01/21 11:32:59;;;;;;;19.10;6.00;;;;;;;3.78;100.00;98630.69;67798;1278;1016453;-59
2023/01/21 11:36:01;;;;;;;19.60;6.20;;;;;;;3.73;100.00;98630.20;67790;1278;1016404;-59
2023/01/21 11:39:04;;;;;;;19.60;6.90;;;;;;;3.78;100.00;98632.09;67821;1278;1016225;-59
2023/01/21 11:42:06;;;;;;;19.40;6.20;;;;;;;3.92;100.00;98627.40;67828;1278;1016458;-59
2023/01/21 11:45:09;;;;;;;;;;;;;;;4.10;100.00;98628.98;67842;1278;1016422;-59
2023/01/21 11:48:11;;;;;;;16.90;4.70;;;;;;;4.17;100.00;98633.92;67807;1277;1016577;-59
2023/01/21 11:51:15;;;;;;;13.40;4.10;;;;;;;4.15;100.00;98640.58;67787;1278;1016256;-59
2023/01/21 11:54:17;;;;;;;12.90;3.70;;;;;;;4.06;100.00;98643.14;67841;1278;1016461;-59
2023/01/21 11:57:19;;;;;;;15.20;4.40;;;;;;;4.05;100.00;98644.57;67814;1278;1016446;-59
2023/01/21 12:00:22;;;;;;;13.50;3.80;;;;;;;4.12;100.00;98647.09;67794;1278;1016436;-59
2023/01/21 12:03:24;;;;;;;14.40;4.20;;;;;;;4.21;100.00;98655.92;67829;1278;1016448;-59
2023/01/21 12:06:29;;;;;;;14.10;4.50;;;;;;;4.29;100.00;98654.27;67854;1278;1016497;-59
2023/01/21 12:09:31;;;;;;;19.10;5.60;;;;;;;4.26;100.00;98653.46;65224;1278;5368598;-59
2023/01/21 12:12:34;;;;;;;18.50;5.60;;;;;;;4.03;100.00;98654.02;67762;1277;1016176;-59
2023/01/21 12:15:36;;;;;;;17.00;5.80;;;;;;;3.92;100.00;98655.94;67808;1278;1016404;-59
2023/01/21 12:18:39;;;;;;;20.00;5.70;;;;;;;3.82;100.00;98660.63;67821;1277;1016300;-59
2023/01/21 12:21:44;;;;;;;21.90;6.90;;;;;;;3.80;100.00;98666.63;67827;1278;1016906;-59
2023/01/21 12:24:46;;;;;;;20.30;6.30;;;;;;;3.90;100.00;98670.58;67813;1278;1016446;-59
2023/01/21 12:27:48;;;;;;;12.10;4.00;;;;;;;3.97;100.00;98675.33;67788;1277;1016316;-59
2023/01/21 12:30:51;;;;;;;13.80;4.40;;;;;;;3.96;100.00;98676.92;67863;1278;1016468;-59
2023/01/21 12:33:53;;;;;;;14.40;4.00;;;;;;;4.04;100.00;98674.39;67858;1278;1016491;-60
2023/01/21 12:36:56;;;;;;;19.30;6.30;;;;;;;4.05;100.00;98674.67;67786;1278;1017510;-59
2023/01/21 12:39:58;;;;;;;13.40;4.20;;;;;;;4.06;100.00;98676.71;67818;1278;1016488;-59
2023/01/21 12:43:01;;;;;;;21.10;7.30;;;;;;;4.03;100.00;98682.22;67836;1278;1016522;-59
2023/01/21 12:46:04;;;;;;;19.60;6.90;;;;;;;3.88;100.00;98682.08;67832;1278;1016368;-59
2023/01/21 12:49:06;;;;;;;20.70;7.30;;;;;;;3.79;100.00;98682.70;67809;1277;1016467;-59
2023/01/21 12:52:09;;;;;;;20.70;6.70;;;;;;;3.77;100.00;98683.98;67798;1278;1016465;-59
2023/01/21 12:55:11;;;;;;;16.40;5.40;;;;;;;3.77;100.00;98687.10;67852;1277;1016553;-59
2023/01/21 12:58:13;;;;;;;16.70;4.70;;;;;;;3.71;100.00;98686.09;67862;1278;1016077;-59
2023/01/21 13:01:16;;;;;;;15.70;4.70;;;;;;;3.77;100.00;98689.16;67787;1277;1016899;-60
2023/01/21 13:04:18;;;;;;;16.10;4.70;;;;;;;3.82;100.00;98692.80;67801;1277;1016424;-60
2023/01/21 13:07:21;;;;;;;15.30;4.60;;;;;;;3.91;100.00;98699.40;67883;1277;1016452;-59
2023/01/21 13:10:23;;;;;;;14.40;4.50;;;;;;;3.93;100.00;98706.42;67851;1278;1016410;-59
2023/01/21 13:13:26;;;;;;;16.30;4.70;;;;;;;3.98;100.00;98711.27;67826;1278;1016358;-59
2023/01/21 13:16:28;;;;;;;14.40;4.80;;;;;;;4.02;100.00;98722.39;67828;1278;1016326;-59
2023/01/21 13:19:31;;;;;;;16.60;4.80;;;;;;;3.94;100.00;98729.23;67844;1278;1016425;-59
2023/01/21 13:22:33;;;;;;;17.70;5.40;;;;;;;3.89;100.00;98737.73;67874;1278;1016232;-59
2023/01/21 13:25:36;;;;;;;15.10;4.80;;;;;;;3.95;100.00;98747.89;67878;1278;1016443;-59
2023/01/21 13:28:38;;;;;;;13.80;4.70;;;;;;;4.01;100.00;98758.05;67864;1278;1016473;-59
2023/01/21 13:31:41;;;;;;;15.50;5.10;;;;;;;4.30;100.00;98764.31;67813;1277;1016229;-59
2023/01/21 13:34:43;;;;;;;18.80;6.30;;;;;;;4.59;100.00;98769.80;67831;1278;1016664;-59
2023/01/21 13:37:46;;;;;;;25.70;10.40;;;;;;;4.80;100.00;98777.35;67877;1278;1016350;-59
2023/01/21 13:40:48;;;;;;;26.80;9.50;;;;;;;4.96;100.00;98785.23;67841;1277;1016296;-59
2023/01/21 13:43:53;;;;;;;25.60;9.40;;;;;;;5.05;100.00;98790.95;67824;1278;1016355;-59
2023/01/21 13:46:55;;;;;;;25.20;10.60;;;;;;;5.05;100.00;98798.23;67872;1277;1016413;-59
2023/01/21 13:49:58;;;;;;;38.70;15.60;;;;;;;5.03;100.00;98800.57;67854;1277;1016454;-59
2023/01/21 13:53:00;;;;;;;34.90;15.80;;;;;;;5.03;100.00;98807.33;67879;1278;1016305;-59
2023/01/21 13:56:03;;;;;;;44.30;19.10;;;;;;;5.13;100.00;98810.02;67811;1277;1016393;-58
2023/01/21 13:59:05;;;;;;;;;;;;;;;5.16;100.00;98809.05;67873;1277;1016409;-59
2023/01/21 14:02:08;;;;;;;38.20;16.80;;;;;;;5.11;100.00;98817.93;67839;1277;1016405;-59
2023/01/21 14:05:10;;;;;;;35.80;16.20;;;;;;;4.87;100.00;98823.00;67847;1277;1016889;-59
2023/01/21 14:08:13;;;;;;;32.80;12.40;;;;;;;4.82;100.00;98828.71;67817;1277;1016289;-59
2023/01/21 14:11:15;;;;;;;28.70;11.90;;;;;;;4.70;100.00;98832.11;67834;1278;1016474;-59